createdAt,value
2022-08-03T00:02:24.382Z,19.90
2022-08-03T00:04:55.144Z,20.50
2022-08-03T00:07:28.746Z,20.17
2022-08-03T00:09:57.575Z,20.33
2022-08-03T00:12:27.903Z,20.73
2022-08-03T00:15:08.368Z,20.48
2022-08-03T00:17:52.568Z,24.33
2022-08-03T00:20:22.095Z,21.83
2022-08-03T00:22:51.692Z,24.83
2022-08-03T00:25:20.852Z,23.23
2022-08-03T00:27:52.446Z,23.92
2022-08-03T00:30:26.906Z,22.70
2022-08-03T00:33:01.599Z,23.33
2022-08-03T00:35:45.860Z,23.85
2022-08-03T00:38:22.124Z,23.70
2022-08-03T00:40:54.688Z,24.38
2022-08-03T00:43:27.882Z,23.70
2022-08-03T00:45:59.721Z,23.88
2022-08-03T00:48:33.627Z,24.27
2022-08-03T00:51:03.146Z,22.52
2022-08-03T00:53:32.455Z,24.50
2022-08-03T00:56:02.577Z,25.75
2022-08-03T00:58:32.943Z,24.05
2022-08-03T01:01:05.143Z,24.10
2022-08-03T01:03:34.636Z,26.00
2022-08-03T01:06:14.160Z,22.80
2022-08-03T01:08:49.469Z,23.40
2022-08-03T01:11:26.945Z,24.15
2022-08-03T01:14:18.655Z,24.33
2022-08-03T01:17:07.548Z,26.15
2022-08-03T01:19:51.172Z,24.25
2022-08-03T01:22:53.041Z,24.80
2022-08-03T01:25:36.522Z,28.27
2022-08-03T01:28:23.928Z,25.27
2022-08-03T01:31:03.372Z,27.52
2022-08-03T01:33:38.464Z,27.80
2022-08-03T01:36:10.909Z,25.77
2022-08-03T01:38:46.191Z,24.80
2022-08-03T01:41:22.453Z,26.33
2022-08-03T01:44:29.336Z,27.02
2022-08-03T01:46:49.510Z,25.02
2022-08-03T01:49:21.567Z,24.52
2022-08-03T01:52:04.086Z,26.75
2022-08-03T01:54:37.606Z,26.52
2022-08-03T01:57:10.997Z,25.63
2022-08-03T01:59:43.408Z,26.40
2022-08-03T02:02:33.101Z,26.08
2022-08-03T02:05:05.717Z,27.05
2022-08-03T02:07:43.963Z,27.55
2022-08-03T02:10:16.401Z,30.80
2022-08-03T02:13:08.787Z,33.88
2022-08-03T02:15:40.773Z,35.17
2022-08-03T02:18:15.733Z,35.88
2022-08-03T02:20:49.870Z,34.80
2022-08-03T02:23:21.057Z,39.85
2022-08-03T02:25:59.857Z,34.10
2022-08-03T02:28:34.759Z,35.85
2022-08-03T02:31:08.297Z,34.63
2022-08-03T02:33:45.045Z,37.53
2022-08-03T02:36:17.252Z,43.58
2022-08-03T02:38:53.260Z,41.58
2022-08-03T02:41:28.562Z,42.35
2022-08-03T02:44:07.147Z,44.15
2022-08-03T02:46:41.944Z,41.33
2022-08-03T02:49:40.462Z,42.67
2022-08-03T02:52:13.076Z,39.30
2022-08-03T02:54:42.971Z,49.75
2022-08-03T02:57:15.395Z,52.85
2022-08-03T02:59:47.223Z,44.53
2022-08-03T03:02:19.382Z,49.55
2022-08-03T03:05:50.715Z,43.05
2022-08-03T03:07:51.406Z,44.30
2022-08-03T03:10:23.851Z,41.17
2022-08-03T03:12:54.668Z,44.08
2022-08-03T03:15:26.070Z,41.10
2022-08-03T03:17:55.838Z,45.95
2022-08-03T03:20:30.124Z,39.25
2022-08-03T03:23:02.521Z,47.30
2022-08-03T03:25:34.035Z,42.33
2022-08-03T03:28:06.356Z,42.97
2022-08-03T03:30:36.526Z,41.30
2022-08-03T03:33:07.650Z,46.85
2022-08-03T03:35:38.974Z,43.97
2022-08-03T03:38:08.478Z,46.55
2022-08-03T03:40:42.313Z,46.10
2022-08-03T03:43:14.290Z,44.17
2022-08-03T03:45:45.476Z,42.97
2022-08-03T03:48:16.853Z,44.75
2022-08-03T03:50:52.026Z,39.80
2022-08-03T03:53:22.823Z,42.38
2022-08-03T03:56:02.638Z,35.40
2022-08-03T03:58:33.447Z,31.75
2022-08-03T04:01:05.044Z,29.08
2022-08-03T04:03:39.771Z,30.85
2022-08-03T04:06:31.366Z,32.03
2022-08-03T04:09:25.551Z,35.33
2022-08-03T04:12:00.377Z,32.47
2022-08-03T04:14:39.819Z,28.23
2022-08-03T04:17:13.218Z,29.45
2022-08-03T04:19:55.127Z,29.70
2022-08-03T04:22:37.473Z,23.77
2022-08-03T04:25:16.071Z,23.08
2022-08-03T04:27:46.271Z,29.13
2022-08-03T04:30:39.418Z,26.95
2022-08-03T04:33:09.540Z,22.55
2022-08-03T04:36:00.979Z,27.50
2022-08-03T04:38:55.268Z,25.85
2022-08-03T04:41:29.969Z,24.67
2022-08-03T04:44:05.067Z,28.05
2022-08-03T04:46:39.814Z,26.00
2022-08-03T04:49:23.365Z,25.35
2022-08-03T04:51:54.270Z,27.90
2022-08-03T04:54:25.535Z,23.35
2022-08-03T04:56:56.778Z,24.65
2022-08-03T04:59:26.193Z,26.83
2022-08-03T05:01:55.441Z,30.65
2022-08-03T05:04:25.919Z,34.55
2022-08-03T05:06:55.126Z,42.95
2022-08-03T05:09:45.782Z,32.60
2022-08-03T05:12:15.752Z,31.80
2022-08-03T05:14:44.388Z,29.40
2022-08-03T05:17:12.901Z,28.38
2022-08-03T05:19:41.679Z,23.83
2022-08-03T05:22:10.875Z,26.27
2022-08-03T05:24:40.712Z,25.90
2022-08-03T05:27:09.322Z,26.85
2022-08-03T05:29:37.870Z,25.58
2022-08-03T05:32:08.420Z,25.05
2022-08-03T05:34:37.162Z,27.17
2022-08-03T05:37:07.939Z,28.38
2022-08-03T05:39:36.650Z,21.50
2022-08-03T05:42:06.704Z,22.48
2022-08-03T05:44:38.830Z,21.02
2022-08-03T05:47:07.580Z,26.33
2022-08-03T05:49:36.087Z,25.48
2022-08-03T05:52:14.239Z,23.67
2022-08-03T05:54:56.199Z,25.05
2022-08-03T05:57:27.833Z,28.40
2022-08-03T05:59:58.593Z,26.38
2022-08-03T06:02:27.796Z,24.95
2022-08-03T06:04:56.557Z,29.00
2022-08-03T06:07:25.263Z,23.92
2022-08-03T06:10:33.627Z,24.63
2022-08-03T06:12:44.938Z,22.30
2022-08-03T06:15:13.564Z,27.88
2022-08-03T06:17:49.106Z,25.77
2022-08-03T06:20:20.138Z,21.65
2022-08-03T06:23:00.486Z,24.83
2022-08-03T06:25:30.939Z,23.92
2022-08-03T06:28:00.901Z,26.70
2022-08-03T06:30:29.429Z,25.60
2022-08-03T06:32:57.930Z,22.02
2022-08-03T06:35:28.010Z,23.50
2022-08-03T06:37:57.147Z,27.58
2022-08-03T06:40:31.226Z,22.63
2022-08-03T06:43:02.614Z,19.02
2022-08-03T06:45:33.278Z,20.30
2022-08-03T06:48:02.991Z,21.95
2022-08-03T06:50:32.183Z,19.33
2022-08-03T06:53:01.211Z,22.27
2022-08-03T06:55:29.895Z,19.73
2022-08-03T06:58:00.000Z,21.80
2022-08-03T07:00:33.540Z,19.77
2022-08-03T07:03:02.107Z,22.08
2022-08-03T07:05:30.821Z,24.85
2022-08-03T07:08:00.151Z,20.40
2022-08-03T07:10:29.066Z,22.55
2022-08-03T07:12:57.556Z,17.85
2022-08-03T07:15:54.599Z,20.63
2022-08-03T07:18:16.039Z,16.05
2022-08-03T07:20:44.859Z,20.08
2022-08-03T07:23:18.900Z,15.65
2022-08-03T07:25:48.078Z,20.08
2022-08-03T07:28:16.808Z,16.98
2022-08-03T07:30:45.368Z,16.30
2022-08-03T07:33:15.325Z,18.17
2022-08-03T07:35:44.044Z,13.60
2022-08-03T07:38:12.710Z,17.25
2022-08-03T07:40:45.991Z,14.20
2022-08-03T07:43:14.793Z,13.68
2022-08-03T07:45:43.917Z,14.07
2022-08-03T07:48:12.826Z,11.10
2022-08-03T07:50:42.737Z,11.38
2022-08-03T07:53:11.326Z,13.45
2022-08-03T07:55:40.017Z,12.85
2022-08-03T07:58:12.418Z,11.55
2022-08-03T08:00:41.177Z,12.43
2022-08-03T08:03:10.204Z,8.32
2022-08-03T08:05:38.924Z,8.50
2022-08-03T08:08:09.288Z,9.18
2022-08-03T08:10:38.070Z,8.02
2022-08-03T08:13:06.596Z,8.90
2022-08-03T08:15:35.116Z,6.00
2022-08-03T08:18:03.646Z,10.00
2022-08-03T08:20:34.870Z,6.55
2022-08-03T08:23:24.189Z,7.18
2022-08-03T08:25:57.967Z,7.13
2022-08-03T08:28:32.608Z,7.82
2022-08-03T08:31:03.481Z,6.35
2022-08-03T08:33:48.290Z,9.15
2022-08-03T08:36:21.052Z,6.60
2022-08-03T08:38:51.917Z,8.20
2022-08-03T08:41:20.632Z,8.70
2022-08-03T08:43:50.244Z,6.60
2022-08-03T08:46:23.846Z,9.23
2022-08-03T08:48:54.904Z,9.10
2022-08-03T08:51:54.847Z,6.00
2022-08-03T08:54:18.108Z,8.18
2022-08-03T08:56:47.254Z,8.00
2022-08-03T08:59:16.362Z,9.70
2022-08-03T09:01:44.986Z,9.60
2022-08-03T09:04:15.023Z,8.65
2022-08-03T09:06:58.603Z,9.85
2022-08-03T09:10:10.775Z,8.65
2022-08-03T09:12:40.835Z,9.13
2022-08-03T09:15:22.618Z,10.15
2022-08-03T09:17:52.775Z,5.60
2022-08-03T09:20:23.513Z,8.80
2022-08-03T09:22:55.675Z,8.05
2022-08-03T09:25:33.815Z,7.50
2022-08-03T09:28:14.373Z,10.15
2022-08-03T09:31:03.151Z,7.68
2022-08-03T09:33:36.198Z,6.35
2022-08-03T09:36:05.188Z,9.23
2022-08-03T09:38:33.682Z,7.70
2022-08-03T09:41:03.663Z,5.97
2022-08-03T09:43:47.679Z,9.77
2022-08-03T09:46:16.225Z,5.32
2022-08-03T09:48:44.740Z,5.00
2022-08-03T09:52:04.999Z,5.10
2022-08-03T09:54:07.597Z,7.38
2022-08-03T09:56:43.114Z,7.10
2022-08-03T09:59:12.593Z,4.53
2022-08-03T10:01:42.789Z,8.10
2022-08-03T10:04:17.071Z,6.00
2022-08-03T10:06:47.077Z,8.40
2022-08-03T10:09:17.701Z,6.68
2022-08-03T10:11:50.502Z,7.80
2022-08-03T10:14:20.175Z,5.88
2022-08-03T10:16:50.282Z,7.78
2022-08-03T10:19:19.515Z,6.72
2022-08-03T10:21:53.359Z,7.78
2022-08-03T10:24:27.581Z,9.60
2022-08-03T10:27:03.604Z,6.28
2022-08-03T10:29:40.237Z,5.53
2022-08-03T10:32:15.757Z,7.43
2022-08-03T10:34:46.320Z,6.00
2022-08-03T10:37:18.562Z,6.80
2022-08-03T10:39:54.699Z,5.22
2022-08-03T10:42:27.288Z,4.57
2022-08-03T10:45:03.968Z,4.95
2022-08-03T10:47:33.741Z,6.07
2022-08-03T10:50:03.011Z,4.93
2022-08-03T10:52:35.996Z,9.55
2022-08-03T10:55:52.442Z,4.85
2022-08-03T10:58:57.373Z,5.13
2022-08-03T11:01:58.990Z,5.75
2022-08-03T11:04:30.337Z,7.90
2022-08-03T11:07:22.455Z,5.07
2022-08-03T11:09:52.911Z,5.38
2022-08-03T11:12:30.213Z,5.82
2022-08-03T11:15:03.592Z,5.47
2022-08-03T11:17:33.969Z,8.93
2022-08-03T11:20:15.616Z,6.40
2022-08-03T11:22:54.638Z,6.50
2022-08-03T11:25:53.060Z,3.92
2022-08-03T11:28:28.505Z,4.88
2022-08-03T11:30:58.457Z,6.43
2022-08-03T11:33:30.763Z,4.50
2022-08-03T11:36:01.751Z,6.47
2022-08-03T11:38:30.524Z,5.68
2022-08-03T11:40:59.074Z,4.18
2022-08-03T11:43:46.871Z,4.40
2022-08-03T11:46:29.616Z,4.10
2022-08-03T11:49:10.494Z,8.02
2022-08-03T11:51:40.644Z,4.60
2022-08-03T11:54:09.524Z,11.93
2022-08-03T11:56:48.939Z,5.95
2022-08-03T11:59:22.293Z,7.18
2022-08-03T12:01:53.222Z,7.10
2022-08-03T12:04:21.723Z,7.28
2022-08-03T12:07:00.594Z,5.85
2022-08-03T12:09:29.142Z,5.15
2022-08-03T12:12:00.137Z,4.40
2022-08-03T12:14:48.638Z,5.00
2022-08-03T12:17:22.383Z,4.82
2022-08-03T12:19:51.206Z,4.57
2022-08-03T12:22:33.314Z,6.10
2022-08-03T12:25:01.914Z,4.88
2022-08-03T12:27:32.267Z,5.25
2022-08-03T12:30:02.085Z,6.38
2022-08-03T12:32:34.393Z,7.53
2022-08-03T12:35:04.679Z,3.95
2022-08-03T12:37:34.125Z,4.57
2022-08-03T12:40:10.219Z,4.95
2022-08-03T12:42:40.567Z,4.95
2022-08-03T12:45:23.211Z,6.88
2022-08-03T12:47:57.435Z,9.40
2022-08-03T12:50:31.454Z,9.10
2022-08-03T12:53:01.613Z,4.95
2022-08-03T12:55:56.319Z,6.10
2022-08-03T12:58:36.337Z,4.78
2022-08-03T13:01:10.302Z,4.30
2022-08-03T13:03:49.702Z,6.00
2022-08-03T13:06:20.018Z,6.50
2022-08-03T13:08:49.403Z,4.22
2022-08-03T13:11:22.878Z,4.50
2022-08-03T13:14:15.343Z,6.13
2022-08-03T13:16:48.214Z,4.32
2022-08-03T13:19:18.189Z,3.60
2022-08-03T13:22:01.866Z,4.63
2022-08-03T13:24:33.995Z,5.65
2022-08-03T13:28:02.727Z,4.32
2022-08-03T13:29:54.139Z,4.35
2022-08-03T13:32:23.190Z,5.10
2022-08-03T13:34:53.189Z,6.10
2022-08-03T13:37:22.248Z,5.30
2022-08-03T13:39:59.147Z,9.45
2022-08-03T13:42:31.035Z,5.50
2022-08-03T13:44:59.816Z,8.05
2022-08-03T13:47:28.906Z,4.10
2022-08-03T13:50:02.757Z,4.15
2022-08-03T13:52:34.815Z,7.03
2022-08-03T13:55:05.671Z,6.18
2022-08-03T13:58:06.630Z,4.40
2022-08-03T14:00:29.264Z,3.95
2022-08-03T14:03:13.806Z,4.50
2022-08-03T14:05:45.241Z,4.13
2022-08-03T14:08:14.099Z,4.22
2022-08-03T14:10:44.999Z,5.25
2022-08-03T14:13:17.739Z,4.10
2022-08-03T14:15:51.019Z,5.78
2022-08-03T14:18:28.608Z,4.60
2022-08-03T14:21:06.277Z,5.40
2022-08-03T14:23:35.874Z,6.80
2022-08-03T14:26:04.844Z,4.00
2022-08-03T14:28:33.365Z,4.10
2022-08-03T14:31:02.657Z,3.70
2022-08-03T14:33:31.229Z,4.03
2022-08-03T14:36:00.084Z,4.93
2022-08-03T14:38:29.969Z,4.50
2022-08-03T14:40:58.573Z,4.97
2022-08-03T14:43:33.724Z,4.05
2022-08-03T14:46:03.223Z,9.45
2022-08-03T14:50:32.309Z,5.68
2022-08-03T14:51:20.348Z,4.05
2022-08-03T14:53:50.216Z,5.82
2022-08-03T14:56:19.380Z,7.90
2022-08-03T14:58:48.557Z,6.05
2022-08-03T15:02:02.091Z,3.80
2022-08-03T15:04:05.951Z,3.72
2022-08-03T15:06:34.456Z,7.22
2022-08-03T15:09:22.502Z,4.20
2022-08-03T15:11:51.876Z,4.13
2022-08-03T15:14:28.254Z,4.00
2022-08-03T15:17:01.282Z,4.18
2022-08-03T15:20:01.030Z,4.72
2022-08-03T15:22:20.599Z,4.47
2022-08-03T15:24:56.383Z,3.78
2022-08-03T15:27:25.634Z,5.45
2022-08-03T15:30:07.909Z,4.05
2022-08-03T15:32:38.894Z,6.22
2022-08-03T15:35:08.329Z,4.82
2022-08-03T15:37:37.002Z,3.30
2022-08-03T15:40:07.984Z,5.70
2022-08-03T15:42:36.702Z,3.38
2022-08-03T15:45:06.546Z,6.10
2022-08-03T15:47:35.506Z,3.83
2022-08-03T15:50:07.919Z,6.65
2022-08-03T15:52:38.365Z,3.50
2022-08-03T15:55:09.711Z,3.80
2022-08-03T15:59:10.239Z,3.67
2022-08-03T16:00:33.943Z,6.00
2022-08-03T16:03:02.853Z,4.30
2022-08-03T16:05:31.436Z,4.97
2022-08-03T16:08:04.025Z,5.45
2022-08-03T16:10:34.985Z,4.03
2022-08-03T16:13:03.516Z,4.68
2022-08-03T16:15:32.018Z,3.70
2022-08-03T16:18:10.058Z,4.63
2022-08-03T16:20:48.015Z,5.18
2022-08-03T16:23:20.129Z,3.47
2022-08-03T16:25:52.918Z,5.22
2022-08-03T16:28:22.992Z,3.30
2022-08-03T16:30:55.620Z,5.05
2022-08-03T16:33:24.477Z,4.95
2022-08-03T16:35:53.392Z,5.43
2022-08-03T16:38:25.665Z,6.18
2022-08-03T16:40:58.446Z,8.95
2022-08-03T16:43:31.756Z,3.97
2022-08-03T16:46:02.487Z,3.85
2022-08-03T16:48:34.679Z,3.35
2022-08-03T16:51:06.643Z,4.28
2022-08-03T16:54:05.387Z,3.75
2022-08-03T16:56:40.781Z,3.75
2022-08-03T16:59:13.904Z,4.18
2022-08-03T17:01:44.442Z,5.55
2022-08-03T17:04:16.676Z,3.50
2022-08-03T17:06:47.059Z,4.63
2022-08-03T17:09:20.555Z,3.80
2022-08-03T17:11:52.849Z,3.55
2022-08-03T17:14:29.512Z,3.50
2022-08-03T17:17:05.499Z,6.05
2022-08-03T17:19:41.703Z,4.18
2022-08-03T17:22:21.989Z,4.43
2022-08-03T17:24:57.394Z,3.80
2022-08-03T17:28:50.493Z,7.03
2022-08-03T17:30:44.284Z,6.18
2022-08-03T17:33:20.339Z,5.65
2022-08-03T17:35:56.547Z,4.40
2022-08-03T17:38:34.716Z,4.40
2022-08-03T17:41:10.891Z,4.53
2022-08-03T17:44:13.511Z,6.05
2022-08-03T17:46:44.470Z,4.43
2022-08-03T17:49:24.776Z,5.60
2022-08-03T17:51:59.502Z,5.20
2022-08-03T17:55:56.629Z,4.68
2022-08-03T17:58:02.695Z,5.55
2022-08-03T18:00:53.245Z,5.18
2022-08-03T18:03:30.916Z,4.75
2022-08-03T18:06:28.556Z,5.85
2022-08-03T18:09:05.418Z,5.05
2022-08-03T18:11:58.082Z,4.80
2022-08-03T18:14:38.985Z,8.15
2022-08-03T18:17:16.575Z,8.07
2022-08-03T18:20:02.903Z,8.15
2022-08-03T18:22:43.049Z,7.75
2022-08-03T18:25:43.137Z,5.15
2022-08-03T18:28:19.274Z,5.90
2022-08-03T18:30:54.206Z,7.35
2022-08-03T18:34:19.400Z,10.95
2022-08-03T18:36:31.018Z,5.80
2022-08-03T18:39:03.233Z,8.98
2022-08-03T18:41:35.438Z,7.43
2022-08-03T18:44:46.476Z,7.30
2022-08-03T18:47:16.817Z,9.50
2022-08-03T18:50:04.112Z,8.10
2022-08-03T18:52:45.818Z,10.00
2022-08-03T18:55:33.096Z,7.80
2022-08-03T18:58:18.145Z,8.98
2022-08-03T19:00:59.671Z,11.70
2022-08-03T19:03:42.988Z,14.98
2022-08-03T19:06:32.033Z,8.52
2022-08-03T19:09:09.427Z,8.80
2022-08-03T19:12:14.356Z,8.68
2022-08-03T19:14:43.509Z,6.13
2022-08-03T19:17:21.369Z,11.50
2022-08-03T19:19:56.702Z,13.02
2022-08-03T19:22:39.678Z,6.40
2022-08-03T19:25:15.994Z,9.77
2022-08-03T19:27:49.694Z,11.20
2022-08-03T19:30:38.745Z,10.50
2022-08-03T19:33:13.300Z,14.75
2022-08-03T19:35:54.868Z,7.63
2022-08-03T19:38:29.974Z,10.43
2022-08-03T19:41:04.344Z,11.05
2022-08-03T19:43:53.817Z,8.85
2022-08-03T19:46:32.065Z,16.13
2022-08-03T19:49:10.572Z,8.40
2022-08-03T19:52:00.839Z,11.38
2022-08-03T19:54:53.322Z,8.80
2022-08-03T19:57:32.005Z,9.45
2022-08-03T20:00:05.677Z,13.13
2022-08-03T20:02:43.072Z,8.75
2022-08-03T20:05:16.617Z,9.75
2022-08-03T20:07:49.487Z,11.40
2022-08-03T20:10:24.075Z,11.38
2022-08-03T20:12:55.564Z,11.80
2022-08-03T20:15:31.103Z,11.27
2022-08-03T20:18:03.355Z,7.63
2022-08-03T20:20:39.626Z,15.57
2022-08-03T20:23:25.942Z,32.05
2022-08-03T20:26:11.656Z,27.38
2022-08-03T20:28:56.243Z,25.67
2022-08-03T20:31:32.380Z,17.90
2022-08-03T20:34:18.692Z,16.80
2022-08-03T20:36:53.353Z,23.92
2022-08-03T20:39:25.291Z,16.88
2022-08-03T20:42:04.565Z,14.98
2022-08-03T20:44:34.922Z,19.38
2022-08-03T20:47:09.561Z,15.85
2022-08-03T20:49:45.530Z,18.15
2022-08-03T20:52:19.309Z,19.52
2022-08-03T20:57:41.092Z,16.77
2022-08-03T21:00:22.000Z,12.55
2022-08-03T21:02:55.104Z,22.30
2022-08-03T21:05:48.320Z,16.17
2022-08-03T21:08:25.722Z,11.45
2022-08-03T21:11:00.889Z,9.63
2022-08-03T21:13:47.066Z,11.57
2022-08-03T21:16:21.794Z,9.63
2022-08-03T21:18:54.468Z,13.13
2022-08-03T21:21:26.125Z,15.05
2022-08-03T21:23:58.529Z,22.50
2022-08-03T21:26:32.127Z,14.10
2022-08-03T21:29:02.603Z,12.07
2022-08-03T21:31:31.332Z,12.40
2022-08-03T21:34:08.717Z,10.90
2022-08-03T21:36:41.053Z,10.40
2022-08-03T21:39:15.142Z,15.27
2022-08-03T21:41:45.239Z,12.80
2022-08-03T21:44:25.151Z,14.00
2022-08-03T21:47:01.665Z,12.38
2022-08-03T21:50:06.777Z,13.35
2022-08-03T21:52:25.089Z,12.50
2022-08-03T21:54:57.411Z,14.88
2022-08-03T21:57:28.071Z,18.75
2022-08-03T22:00:07.460Z,15.20
2022-08-03T22:02:54.832Z,14.95
2022-08-03T22:05:42.698Z,18.48
2022-08-03T22:08:15.174Z,14.43
2022-08-03T22:10:45.955Z,15.43
2022-08-03T22:13:43.769Z,12.98
2022-08-03T22:16:24.879Z,14.30
2022-08-03T22:18:56.399Z,16.40
2022-08-03T22:21:36.121Z,15.40
2022-08-03T22:24:08.761Z,18.83
2022-08-03T22:27:01.332Z,17.70
2022-08-03T22:29:31.247Z,14.40
2022-08-03T22:32:04.828Z,13.77
2022-08-03T22:34:35.994Z,19.85
2022-08-03T22:37:07.678Z,14.05
2022-08-03T22:39:41.133Z,16.67
2022-08-03T22:42:11.541Z,18.15
2022-08-03T22:44:40.781Z,16.08
2022-08-03T22:47:12.008Z,17.58
2022-08-03T22:49:41.330Z,15.63
2022-08-03T22:52:12.747Z,14.00
2022-08-03T22:54:42.368Z,15.88
2022-08-03T22:57:11.496Z,15.57
2022-08-03T22:59:42.140Z,15.23
2022-08-03T23:02:21.331Z,18.85
2022-08-03T23:04:53.156Z,16.77
2022-08-03T23:07:25.990Z,19.08
2022-08-03T23:09:55.076Z,22.35
2022-08-03T23:12:25.595Z,24.65
2022-08-03T23:14:58.905Z,17.85
2022-08-03T23:17:32.050Z,18.27
2022-08-03T23:20:04.884Z,15.82
2022-08-03T23:22:35.866Z,17.60
2022-08-03T23:25:08.107Z,18.90
2022-08-03T23:27:40.384Z,17.52
2022-08-03T23:30:13.430Z,18.95
2022-08-03T23:32:46.526Z,24.42
2022-08-03T23:36:27.889Z,20.38
2022-08-03T23:38:31.679Z,17.33
2022-08-03T23:41:03.777Z,18.00
2022-08-03T23:43:51.439Z,19.08
2022-08-03T23:46:22.857Z,22.83
2022-08-03T23:48:56.451Z,23.88
2022-08-03T23:51:48.787Z,20.30
2022-08-03T23:54:32.015Z,20.90
2022-08-03T23:57:08.773Z,22.45
2022-08-03T23:59:49.793Z,19.90
